createdAt,value
2019-05-07T00:02:18.649Z,69.80
2019-05-07T00:04:48.000Z,69.90
2019-05-07T00:07:17.566Z,70.10
2019-05-07T00:09:46.336Z,70.10
2019-05-07T00:12:15.183Z,70.20
2019-05-07T00:14:58.179Z,71.50
2019-05-07T00:17:15.686Z,71.50
2019-05-07T00:19:44.436Z,72.50
2019-05-07T00:22:13.306Z,71.60
2019-05-07T00:24:42.737Z,73.10
2019-05-07T00:27:13.115Z,73.20
2019-05-07T00:29:43.141Z,73.70
2019-05-07T00:32:12.253Z,73.90
2019-05-07T00:34:42.661Z,74.10
2019-05-07T00:37:13.983Z,73.90
2019-05-07T00:39:56.613Z,73.90
2019-05-07T00:42:27.956Z,74.40
2019-05-07T00:45:13.210Z,74.50
2019-05-07T00:47:28.874Z,75.20
2019-05-07T00:49:59.296Z,75.10
2019-05-07T00:52:28.259Z,75.80
2019-05-07T00:54:57.021Z,76.70
2019-05-07T00:57:25.746Z,75.60
2019-05-07T00:59:54.790Z,76.40
2019-05-07T01:02:23.861Z,76.70
2019-05-07T01:04:53.175Z,77.00
2019-05-07T01:07:22.922Z,77.10
2019-05-07T01:09:52.512Z,77.10
2019-05-07T01:12:23.120Z,76.80
2019-05-07T01:14:52.987Z,77.60
2019-05-07T01:17:22.765Z,77.80
2019-05-07T01:19:53.204Z,77.80
2019-05-07T01:22:22.366Z,77.70
2019-05-07T01:24:52.921Z,78.00
2019-05-07T01:27:22.743Z,77.80
2019-05-07T01:29:52.834Z,78.20
2019-05-07T01:32:23.708Z,78.40
2019-05-07T01:34:54.503Z,78.00
2019-05-07T01:37:23.430Z,78.20
2019-05-07T01:39:52.967Z,78.20
2019-05-07T01:42:22.344Z,78.50
2019-05-07T01:44:52.841Z,78.30
2019-05-07T01:47:23.766Z,77.80
2019-05-07T01:49:55.063Z,78.00
2019-05-07T01:52:23.133Z,77.80
2019-05-07T01:54:52.340Z,78.30
2019-05-07T01:57:23.134Z,78.30
2019-05-07T01:59:53.277Z,77.80
2019-05-07T02:02:35.500Z,77.30
2019-05-07T02:05:14.272Z,77.50
2019-05-07T02:07:44.855Z,77.20
2019-05-07T02:10:22.633Z,77.10
2019-05-07T02:12:52.606Z,77.20
2019-05-07T02:15:23.275Z,77.10
2019-05-07T02:17:52.596Z,77.50
2019-05-07T02:20:22.573Z,78.10
2019-05-07T02:22:53.193Z,79.80
2019-05-07T02:25:22.347Z,78.90
2019-05-07T02:27:52.844Z,79.50
2019-05-07T02:30:23.933Z,79.80
2019-05-07T02:32:53.944Z,80.20
2019-05-07T02:35:23.659Z,80.70
2019-05-07T02:37:56.905Z,80.70
2019-05-07T02:40:28.989Z,81.00
2019-05-07T02:42:57.741Z,81.30
2019-05-07T02:45:28.552Z,81.40
2019-05-07T02:47:57.536Z,81.90
2019-05-07T02:50:34.600Z,81.80
2019-05-07T02:53:23.211Z,82.10
2019-05-07T02:55:53.844Z,82.30
2019-05-07T02:58:24.100Z,81.80
2019-05-07T03:00:54.172Z,82.00
2019-05-07T03:03:24.628Z,81.30
2019-05-07T03:05:53.741Z,80.60
2019-05-07T03:08:27.055Z,81.40
2019-05-07T03:10:53.181Z,81.70
2019-05-07T03:13:23.749Z,81.80
2019-05-07T03:15:53.938Z,81.90
2019-05-07T03:18:23.908Z,81.90
2019-05-07T03:20:54.390Z,82.10
2019-05-07T03:23:24.735Z,82.00
2019-05-07T03:25:55.265Z,82.30
2019-05-07T03:28:25.730Z,82.10
2019-05-07T03:30:57.204Z,82.40
2019-05-07T03:33:27.956Z,84.00
2019-05-07T03:35:59.298Z,87.40
2019-05-07T03:38:28.169Z,86.20
2019-05-07T03:40:56.926Z,85.50
2019-05-07T03:43:27.048Z,83.00
2019-05-07T03:46:03.314Z,82.70
2019-05-07T03:48:33.288Z,82.40
2019-05-07T03:51:03.871Z,82.50
2019-05-07T03:53:33.786Z,82.50
2019-05-07T03:56:04.138Z,83.30
2019-05-07T03:58:34.144Z,82.80
2019-05-07T04:01:04.291Z,82.90
2019-05-07T04:03:34.419Z,82.70
2019-05-07T04:06:04.191Z,83.20
2019-05-07T04:08:33.615Z,83.10
2019-05-07T04:11:03.744Z,82.20
2019-05-07T04:13:33.715Z,82.50
2019-05-07T04:16:04.092Z,84.70
2019-05-07T04:18:33.681Z,85.00
2019-05-07T04:21:03.807Z,84.80
2019-05-07T04:23:34.483Z,85.00
2019-05-07T04:26:04.906Z,84.90
2019-05-07T04:28:35.295Z,84.30
2019-05-07T04:31:05.107Z,83.50
2019-05-07T04:33:35.430Z,83.50
2019-05-07T04:36:06.638Z,82.80
2019-05-07T04:38:35.587Z,82.80
2019-05-07T04:41:05.900Z,82.90
2019-05-07T04:43:34.766Z,82.30
2019-05-07T04:46:03.668Z,81.60
2019-05-07T04:48:34.115Z,81.90
2019-05-07T04:51:04.537Z,81.90
2019-05-07T04:53:33.328Z,82.50
2019-05-07T04:56:03.250Z,82.50
2019-05-07T04:58:33.741Z,82.50
2019-05-07T05:01:03.779Z,82.80
2019-05-07T05:03:34.650Z,83.30
2019-05-07T05:06:03.074Z,83.40
2019-05-07T05:08:32.585Z,83.90
2019-05-07T05:11:03.422Z,83.50
2019-05-07T05:13:33.162Z,83.40
2019-05-07T05:16:04.034Z,83.80
2019-05-07T05:18:33.118Z,83.70
2019-05-07T05:21:12.532Z,83.40
2019-05-07T05:23:52.362Z,83.40
2019-05-07T05:26:21.976Z,84.50
2019-05-07T05:28:52.566Z,83.90
2019-05-07T05:31:22.291Z,83.60
2019-05-07T05:33:52.677Z,84.20
2019-05-07T05:36:22.300Z,84.20
2019-05-07T05:38:52.930Z,83.50
2019-05-07T05:41:22.699Z,83.80
2019-05-07T05:43:56.183Z,82.40
2019-05-07T05:46:26.606Z,81.90
2019-05-07T05:48:55.374Z,82.00
2019-05-07T05:51:34.756Z,81.70
2019-05-07T05:54:22.295Z,80.60
2019-05-07T05:56:59.161Z,80.60
2019-05-07T05:59:49.182Z,79.90
2019-05-07T06:02:22.761Z,78.60
2019-05-07T06:05:01.970Z,79.00
2019-05-07T06:07:42.615Z,77.60
2019-05-07T06:10:28.551Z,76.10
2019-05-07T06:13:12.381Z,74.40
2019-05-07T06:16:02.935Z,75.00
2019-05-07T06:18:42.227Z,74.80
2019-05-07T06:21:12.678Z,73.30
2019-05-07T06:23:45.811Z,72.30
2019-05-07T06:26:14.549Z,72.40
2019-05-07T06:28:43.340Z,70.80
2019-05-07T06:31:12.635Z,70.50
2019-05-07T06:33:42.969Z,71.30
2019-05-07T06:36:13.319Z,82.30
2019-05-07T06:38:43.617Z,92.40
2019-05-07T06:41:16.953Z,90.30
2019-05-07T06:43:47.295Z,88.00
2019-05-07T06:46:16.247Z,82.10
2019-05-07T06:48:46.236Z,76.70
2019-05-07T06:51:17.453Z,65.20
2019-05-07T06:53:45.672Z,72.10
2019-05-07T06:56:14.391Z,67.20
2019-05-07T06:58:59.523Z,66.20
2019-05-07T07:01:32.109Z,67.90
2019-05-07T07:04:02.609Z,66.90
2019-05-07T07:06:33.279Z,57.20
2019-05-07T07:09:03.560Z,63.30
2019-05-07T07:11:36.883Z,61.40
2019-05-07T07:14:05.792Z,60.60
2019-05-07T07:16:34.512Z,57.00
2019-05-07T07:19:03.465Z,57.70
2019-05-07T07:21:32.751Z,57.00
2019-05-07T07:24:02.973Z,57.90
2019-05-07T07:26:32.754Z,57.50
2019-05-07T07:29:02.100Z,56.30
2019-05-07T07:31:38.596Z,56.10
2019-05-07T07:34:07.427Z,54.60
2019-05-07T07:36:37.751Z,52.50
2019-05-07T07:39:07.882Z,49.90
2019-05-07T07:41:38.157Z,50.40
2019-05-07T07:44:07.063Z,52.20
2019-05-07T07:46:35.980Z,52.90
2019-05-07T07:49:10.983Z,51.00
2019-05-07T07:51:41.862Z,48.80
2019-05-07T07:54:05.814Z,51.40
2019-05-07T07:56:56.466Z,52.30
2019-05-07T07:59:26.191Z,53.00
2019-05-07T08:01:56.487Z,50.10
2019-05-07T08:04:25.448Z,49.30
2019-05-07T08:07:03.335Z,48.60
2019-05-07T08:09:33.518Z,49.10
2019-05-07T08:12:02.747Z,47.90
2019-05-07T08:14:32.488Z,49.00
2019-05-07T08:17:03.916Z,48.40
2019-05-07T08:19:33.092Z,49.10
2019-05-07T08:22:02.871Z,49.80
2019-05-07T08:24:32.269Z,47.90
2019-05-07T08:27:02.425Z,47.90
2019-05-07T08:29:32.552Z,48.30
2019-05-07T08:32:18.888Z,47.20
2019-05-07T08:34:54.964Z,45.30
2019-05-07T08:37:24.509Z,45.80
2019-05-07T08:39:53.468Z,42.90
2019-05-07T08:42:22.891Z,44.90
2019-05-07T08:45:11.870Z,44.90
2019-05-07T08:47:44.799Z,47.70
2019-05-07T08:50:13.515Z,45.30
2019-05-07T08:52:42.363Z,44.90
2019-05-07T08:55:12.629Z,43.60
2019-05-07T08:57:42.050Z,42.90
2019-05-07T09:00:12.345Z,42.10
2019-05-07T09:02:42.112Z,44.30
2019-05-07T09:05:16.412Z,44.20
2019-05-07T09:07:47.429Z,43.30
2019-05-07T09:10:24.722Z,40.60
2019-05-07T09:13:02.703Z,43.90
2019-05-07T09:15:38.622Z,41.30
2019-05-07T09:18:12.437Z,41.20
2019-05-07T09:20:42.502Z,40.40
2019-05-07T09:23:12.375Z,41.10
2019-05-07T09:25:42.980Z,37.70
2019-05-07T09:28:11.930Z,38.80
2019-05-07T09:30:58.596Z,38.80
2019-05-07T09:33:28.887Z,37.10
2019-05-07T09:35:57.619Z,40.10
2019-05-07T09:38:26.412Z,39.10
2019-05-07T09:40:56.985Z,38.90
2019-05-07T09:43:25.490Z,37.20
2019-05-07T09:45:55.410Z,39.30
2019-05-07T09:48:24.326Z,37.90
2019-05-07T09:50:53.157Z,36.90
2019-05-07T09:53:22.870Z,39.60
2019-05-07T09:55:51.871Z,38.90
2019-05-07T09:58:35.030Z,39.70
2019-05-07T10:00:52.215Z,39.90
2019-05-07T10:03:22.795Z,39.00
2019-05-07T10:05:52.073Z,38.10
2019-05-07T10:08:20.876Z,39.30
2019-05-07T10:10:51.223Z,40.60
2019-05-07T10:13:32.873Z,39.30
2019-05-07T10:16:03.836Z,40.40
2019-05-07T10:18:32.116Z,40.70
2019-05-07T10:21:02.491Z,42.40
2019-05-07T10:23:32.323Z,40.40
2019-05-07T10:26:01.822Z,38.90
2019-05-07T10:28:32.059Z,39.70
2019-05-07T10:31:00.939Z,40.90
2019-05-07T10:33:31.970Z,39.20
2019-05-07T10:36:02.086Z,40.40
2019-05-07T10:38:30.980Z,38.10
2019-05-07T10:40:59.942Z,37.20
2019-05-07T10:43:28.723Z,37.20
2019-05-07T10:46:08.121Z,36.10
2019-05-07T10:48:38.653Z,36.90
2019-05-07T10:51:08.506Z,36.10
2019-05-07T10:53:37.215Z,35.70
2019-05-07T10:56:06.230Z,34.60
2019-05-07T10:58:34.963Z,34.50
2019-05-07T11:01:03.678Z,36.70
2019-05-07T11:03:32.595Z,34.60
2019-05-07T11:06:01.363Z,34.70
2019-05-07T11:08:30.083Z,35.00
2019-05-07T11:10:58.845Z,33.10
2019-05-07T11:13:27.579Z,33.40
2019-05-07T11:16:02.390Z,34.30
2019-05-07T11:18:35.461Z,32.70
2019-05-07T11:21:05.035Z,35.30
2019-05-07T11:23:33.790Z,33.70
2019-05-07T11:26:02.822Z,33.70
2019-05-07T11:28:32.321Z,32.60
2019-05-07T11:31:02.073Z,33.00
2019-05-07T11:33:32.502Z,33.00
2019-05-07T11:36:02.146Z,35.30
2019-05-07T11:38:33.129Z,34.50
2019-05-07T11:41:02.370Z,36.00
2019-05-07T11:43:38.964Z,35.50
2019-05-07T11:46:09.256Z,34.00
2019-05-07T11:48:39.574Z,34.40
2019-05-07T11:51:09.866Z,35.20
2019-05-07T11:53:56.459Z,34.00
2019-05-07T11:56:25.286Z,34.00
2019-05-07T11:58:54.873Z,35.50
2019-05-07T12:01:23.691Z,35.30
2019-05-07T12:03:52.424Z,33.70
2019-05-07T12:06:21.704Z,35.30
2019-05-07T12:08:52.069Z,34.10
2019-05-07T12:11:21.887Z,35.30
2019-05-07T12:13:52.348Z,36.30
2019-05-07T12:16:22.354Z,37.30
2019-05-07T12:18:52.455Z,36.90
2019-05-07T12:21:24.247Z,35.70
2019-05-07T12:23:53.224Z,33.90
2019-05-07T12:26:22.292Z,34.60
2019-05-07T12:28:52.171Z,35.10
2019-05-07T12:31:28.595Z,35.40
2019-05-07T12:34:04.890Z,34.40
2019-05-07T12:36:33.599Z,34.80
2019-05-07T12:39:02.390Z,34.30
2019-05-07T12:41:34.362Z,35.90
2019-05-07T12:44:05.313Z,36.10
2019-05-07T12:46:34.093Z,37.00
2019-05-07T12:49:03.298Z,34.00
2019-05-07T12:51:37.548Z,34.10
2019-05-07T12:54:18.914Z,34.80
2019-05-07T12:56:47.919Z,35.60
2019-05-07T12:59:16.652Z,34.30
2019-05-07T13:02:15.969Z,34.50
2019-05-07T13:04:34.944Z,34.60
2019-05-07T13:07:14.113Z,34.50
2019-05-07T13:09:42.932Z,35.40
2019-05-07T13:12:11.635Z,34.20
2019-05-07T13:14:41.162Z,34.50
2019-05-07T13:17:11.969Z,35.10
2019-05-07T13:19:41.880Z,34.20
2019-05-07T13:22:12.403Z,34.20
2019-05-07T13:24:42.492Z,35.00
2019-05-07T13:27:11.448Z,34.40
2019-05-07T13:29:42.512Z,33.90
2019-05-07T13:32:12.240Z,31.40
2019-05-07T13:34:42.543Z,31.10
2019-05-07T13:37:21.798Z,31.90
2019-05-07T13:39:54.730Z,31.80
2019-05-07T13:42:43.984Z,32.40
2019-05-07T13:45:17.635Z,31.10
2019-05-07T13:47:46.932Z,31.90
2019-05-07T13:50:15.706Z,31.60
2019-05-07T13:52:44.655Z,31.30
2019-05-07T13:55:13.375Z,31.70
2019-05-07T13:57:42.142Z,31.70
2019-05-07T14:00:12.828Z,32.20
2019-05-07T14:02:42.203Z,31.50
2019-05-07T14:05:13.987Z,31.90
2019-05-07T14:07:43.381Z,32.00
2019-05-07T14:10:12.689Z,33.30
2019-05-07T14:12:42.518Z,34.00
2019-05-07T14:15:12.571Z,33.70
2019-05-07T14:17:42.646Z,32.70
2019-05-07T14:20:12.923Z,33.30
2019-05-07T14:22:42.520Z,33.20
2019-05-07T14:25:11.382Z,32.90
2019-05-07T14:27:40.173Z,33.50
2019-05-07T14:30:08.909Z,33.70
2019-05-07T14:32:44.778Z,34.10
2019-05-07T14:35:23.859Z,34.70
2019-05-07T14:37:54.173Z,34.70
2019-05-07T14:40:25.169Z,34.70
2019-05-07T14:42:54.854Z,35.20
2019-05-07T14:45:23.931Z,34.60
2019-05-07T14:47:52.724Z,34.50
2019-05-07T14:50:22.592Z,35.60
2019-05-07T14:52:55.153Z,34.40
2019-05-07T14:55:22.775Z,34.50
2019-05-07T14:57:52.546Z,34.20
2019-05-07T15:00:22.541Z,34.80
2019-05-07T15:02:52.495Z,34.50
2019-05-07T15:05:22.463Z,34.20
2019-05-07T15:07:51.380Z,33.30
2019-05-07T15:10:22.224Z,32.20
2019-05-07T15:12:52.219Z,32.10
2019-05-07T15:15:21.987Z,32.50
2019-05-07T15:17:52.914Z,32.60
2019-05-07T15:20:22.550Z,32.80
2019-05-07T15:22:59.020Z,32.70
2019-05-07T15:25:27.784Z,33.70
2019-05-07T15:27:57.486Z,34.00
2019-05-07T15:30:27.835Z,34.10
2019-05-07T15:32:56.555Z,33.60
2019-05-07T15:35:25.339Z,33.80
2019-05-07T15:37:54.263Z,33.50
2019-05-07T15:40:23.812Z,33.00
2019-05-07T15:42:52.661Z,32.70
2019-05-07T15:45:21.875Z,33.50
2019-05-07T15:47:52.300Z,33.50
2019-05-07T15:50:23.152Z,32.90
2019-05-07T15:52:59.169Z,31.80
2019-05-07T15:55:27.977Z,32.30
2019-05-07T15:57:58.038Z,32.80
2019-05-07T16:00:28.444Z,32.80
2019-05-07T16:03:02.532Z,33.30
2019-05-07T16:05:31.948Z,32.60
2019-05-07T16:08:01.700Z,33.60
2019-05-07T16:10:32.312Z,34.20
2019-05-07T16:13:01.265Z,34.00
2019-05-07T16:15:32.001Z,34.10
2019-05-07T16:18:02.925Z,34.60
2019-05-07T16:20:32.557Z,33.20
2019-05-07T16:23:14.342Z,33.70
2019-05-07T16:25:34.556Z,34.10
2019-05-07T16:28:04.831Z,33.90
2019-05-07T16:30:33.914Z,34.80
2019-05-07T16:33:03.501Z,35.40
2019-05-07T16:35:32.310Z,36.40
2019-05-07T16:38:01.450Z,36.50
2019-05-07T16:40:32.340Z,36.60
2019-05-07T18:26:01.060Z,40.70
2019-05-07T18:28:32.358Z,34.70
2019-05-07T18:31:02.016Z,35.70
2019-05-07T18:33:33.566Z,36.40
2019-05-07T18:36:03.171Z,36.70
2019-05-07T18:38:32.974Z,36.70
2019-05-07T18:41:02.913Z,36.80
2019-05-07T18:43:33.533Z,36.90
2019-05-07T18:46:03.751Z,37.10
2019-05-07T18:48:32.745Z,37.20
2019-05-07T18:51:02.671Z,37.20
2019-05-07T18:53:31.958Z,37.50
2019-05-07T18:56:01.697Z,37.70
2019-05-07T18:58:31.914Z,37.70
2019-05-07T19:01:09.975Z,37.90
2019-05-07T19:03:39.313Z,37.90
2019-05-07T19:06:08.702Z,38.10
2019-05-07T19:08:39.125Z,38.20
2019-05-07T19:11:08.122Z,38.40
2019-05-07T19:13:37.111Z,38.50
2019-05-07T19:16:07.132Z,38.70
2019-05-07T19:18:36.020Z,38.80
2019-05-07T19:21:06.834Z,39.00
2019-05-07T19:23:38.003Z,39.00
2019-05-07T19:26:07.097Z,39.10
2019-05-07T19:28:36.296Z,39.10
2019-05-07T19:31:06.323Z,39.30
2019-05-07T19:33:35.208Z,39.40
2019-05-07T19:36:05.744Z,39.60
2019-05-07T19:38:36.056Z,39.70
2019-05-07T19:41:06.173Z,39.90
2019-05-07T19:43:36.359Z,40.10
2019-05-07T19:46:05.698Z,40.10
2019-05-07T19:48:34.706Z,40.10
2019-05-07T19:51:03.683Z,40.30
2019-05-07T19:53:32.982Z,40.40
2019-05-07T19:56:09.657Z,40.60
2019-05-07T19:58:38.956Z,40.50
2019-05-07T20:01:09.217Z,40.80
2019-05-07T20:03:38.478Z,41.60
2019-05-07T20:06:07.473Z,43.00
2019-05-07T20:08:37.694Z,44.40
2019-05-07T20:11:14.367Z,46.30
2019-05-07T20:13:43.972Z,49.10
2019-05-07T20:16:17.882Z,49.80
2019-05-07T20:18:49.231Z,51.70
2019-05-07T20:21:18.119Z,51.20
2019-05-07T20:23:47.112Z,52.70
2019-05-07T20:26:16.004Z,51.90
2019-05-07T20:28:46.943Z,50.50
2019-05-07T20:31:15.938Z,49.30
2019-05-07T20:33:44.827Z,48.60
2019-05-07T20:36:13.947Z,47.00
2019-05-07T20:38:43.439Z,46.20
2019-05-07T20:41:13.625Z,45.50
2019-05-07T20:43:43.051Z,45.00
2019-05-07T20:46:12.091Z,44.30
2019-05-07T20:48:42.349Z,44.00
2019-05-07T20:51:13.018Z,43.60
2019-05-07T20:53:52.747Z,43.20
2019-05-07T20:56:27.269Z,42.80
2019-05-07T20:58:56.262Z,42.50
2019-05-07T21:01:25.564Z,42.20
2019-05-07T21:03:54.659Z,41.90
2019-05-07T21:06:25.700Z,41.70
2019-05-07T21:08:54.999Z,41.60
2019-05-07T21:11:24.299Z,41.40
2019-05-07T21:13:53.293Z,41.50
2019-05-07T21:16:22.593Z,41.70
2019-05-07T21:18:52.819Z,41.90
2019-05-07T21:21:22.423Z,42.00
2019-05-07T21:23:52.686Z,42.20
2019-05-07T21:26:22.498Z,42.30
2019-05-07T21:28:52.916Z,42.30
2019-05-07T21:31:22.876Z,42.40
2019-05-07T21:33:52.630Z,42.40
2019-05-07T21:36:22.779Z,42.40
2019-05-07T21:38:52.550Z,42.40
2019-05-07T21:41:22.872Z,42.30
2019-05-07T21:43:52.931Z,42.40
2019-05-07T21:46:22.498Z,42.50
2019-05-07T21:48:53.738Z,42.50
2019-05-07T21:51:24.471Z,42.50
2019-05-07T21:54:07.504Z,42.40
2019-05-07T21:56:42.118Z,42.60
2019-05-07T21:59:15.720Z,42.70
2019-05-07T22:01:46.556Z,42.70
2019-05-07T22:04:15.549Z,42.60
2019-05-07T22:06:45.541Z,42.60
2019-05-07T22:09:15.685Z,42.70
2019-05-07T22:11:44.678Z,42.70
2019-05-07T22:14:13.979Z,42.80
2019-05-07T22:16:43.381Z,42.80
2019-05-07T22:19:12.382Z,42.80
2019-05-07T22:21:43.185Z,42.70
2019-05-07T22:24:15.105Z,42.90
2019-05-07T22:26:44.781Z,42.90
2019-05-07T22:29:13.773Z,42.90
2019-05-07T22:31:44.632Z,42.90
2019-05-07T22:34:15.446Z,43.00
2019-05-07T22:36:44.543Z,43.10
2019-05-07T22:39:14.357Z,43.20
2019-05-07T22:41:45.294Z,43.30
2019-05-07T22:44:16.642Z,43.40
2019-05-07T22:46:52.767Z,43.60
2019-05-07T22:49:22.938Z,43.70
2019-05-07T22:51:54.759Z,44.00
2019-05-07T22:54:23.676Z,44.00
2019-05-07T22:57:13.987Z,44.00
2019-05-07T22:59:43.160Z,43.90
2019-05-07T23:02:12.566Z,44.00
2019-05-07T23:04:43.215Z,44.00
2019-05-07T23:07:12.777Z,44.00
2019-05-07T23:09:42.002Z,44.10
2019-05-07T23:12:12.498Z,44.00
2019-05-07T23:14:41.730Z,44.00
2019-05-07T23:17:12.595Z,44.00
2019-05-07T23:19:41.943Z,44.10
2019-05-07T23:22:13.368Z,44.30
2019-05-07T23:24:43.640Z,44.30
2019-05-07T23:27:14.789Z,44.50
2019-05-07T23:29:43.973Z,44.60
2019-05-07T23:32:13.386Z,44.80
2019-05-07T23:34:43.304Z,44.90
2019-05-07T23:37:12.200Z,45.00
2019-05-07T23:39:42.822Z,45.10
2019-05-07T23:42:13.559Z,45.30
2019-05-07T23:44:42.551Z,45.50
2019-05-07T23:47:12.188Z,45.60
2019-05-07T23:49:43.021Z,45.60
2019-05-07T23:52:12.926Z,45.90
2019-05-07T23:54:42.547Z,45.90
2019-05-07T23:57:14.912Z,46.00
2019-05-07T23:59:42.358Z,46.00
